sensor_id;sensor_type;location;lat;lon;timestamp;pressure;altitude;pressure_sealevel;temperature;humidity
42591;BME280;28218;53.342;-6.216;2022-09-29T00:01:09;100289.56;;;10.63;100.00
42591;BME280;28218;53.342;-6.216;2022-09-29T00:03:39;100294.84;;;10.63;100.00
42591;BME280;28218;53.342;-6.216;2022-09-29T00:06:11;100289.75;;;10.61;100.00
42591;BME280;28218;53.342;-6.216;2022-09-29T00:08:41;100277.59;;;10.60;100.00
42591;BME280;28218;53.342;-6.216;2022-09-29T00:11:13;100283.03;;;10.59;100.00
42591;BME280;28218;53.342;-6.216;2022-09-29T00:13:42;100278.94;;;10.56;100.00
42591;BME280;28218;53.342;-6.216;2022-09-29T00:16:11;100278.13;;;10.56;100.00
42591;BME280;28218;53.342;-6.216;2022-09-29T00:18:40;100269.41;;;10.55;100.00
42591;BME280;28218;53.342;-6.216;2022-09-29T00:21:10;100264.94;;;10.56;100.00
42591;BME280;28218;53.342;-6.216;2022-09-29T00:23:38;100263.13;;;10.56;100.00
42591;BME280;28218;53.342;-6.216;2022-09-29T00:26:09;100259.88;;;10.54;100.00
42591;BME280;28218;53.342;-6.216;2022-09-29T00:28:40;100261.84;;;10.52;100.00
42591;BME280;28218;53.342;-6.216;2022-09-29T00:31:09;100257.38;;;10.53;100.00
42591;BME280;28218;53.342;-6.216;2022-09-29T00:33:38;100256.75;;;10.51;100.00
42591;BME280;28218;53.342;-6.216;2022-09-29T00:36:09;100258.59;;;10.50;100.00
42591;BME280;28218;53.342;-6.216;2022-09-29T00:38:39;100245.56;;;10.48;100.00
42591;BME280;28218;53.342;-6.216;2022-09-29T00:41:12;100251.84;;;10.47;100.00
42591;BME280;28218;53.342;-6.216;2022-09-29T00:43:53;100247.38;;;10.48;100.00
42591;BME280;28218;53.342;-6.216;2022-09-29T00:46:36;100242.50;;;10.45;100.00
42591;BME280;28218;53.342;-6.216;2022-09-29T00:49:10;100232.78;;;10.45;100.00
42591;BME280;28218;53.342;-6.216;2022-09-29T00:51:44;100231.16;;;10.44;100.00
42591;BME280;28218;53.342;-6.216;2022-09-29T00:54:13;100237.38;;;10.43;100.00
42591;BME280;28218;53.342;-6.216;2022-09-29T00:56:43;100230.50;;;10.42;100.00
42591;BME280;28218;53.342;-6.216;2022-09-29T00:59:17;100228.84;;;10.41;100.00
42591;BME280;28218;53.342;-6.216;2022-09-29T01:01:47;100223.41;;;10.43;100.00
42591;BME280;28218;53.342;-6.216;2022-09-29T01:04:18;100226.56;;;10.38;100.00
42591;BME280;28218;53.342;-6.216;2022-09-29T01:06:49;100226.56;;;10.38;100.00
42591;BME280;28218;53.342;-6.216;2022-09-29T01:09:21;100220.03;;;10.34;100.00
42591;BME280;28218;53.342;-6.216;2022-09-29T01:11:50;100213.94;;;10.34;100.00
42591;BME280;28218;53.342;-6.216;2022-09-29T01:14:22;100208.66;;;10.34;100.00
42591;BME280;28218;53.342;-6.216;2022-09-29T01:16:50;100202.94;;;10.30;100.00
42591;BME280;28218;53.342;-6.216;2022-09-29T01:19:25;100202.13;;;10.30;100.00
42591;BME280;28218;53.342;-6.216;2022-09-29T01:22:03;100192.25;;;10.32;100.00
42591;BME280;28218;53.342;-6.216;2022-09-29T01:25:14;100184.22;;;10.25;100.00
42591;BME280;28218;53.342;-6.216;2022-09-29T01:28:30;100185.22;;;10.24;100.00
42591;BME280;28218;53.342;-6.216;2022-09-29T01:31:14;100175.97;;;10.28;100.00
42591;BME280;28218;53.342;-6.216;2022-09-29T01:33:49;100180.25;;;10.29;100.00
42591;BME280;28218;53.342;-6.216;2022-09-29T01:36:26;100179.09;;;10.32;100.00
42591;BME280;28218;53.342;-6.216;2022-09-29T01:39:09;100174.44;;;10.34;100.00
42591;BME280;28218;53.342;-6.216;2022-09-29T01:41:42;100163.56;;;10.37;100.00
42591;BME280;28218;53.342;-6.216;2022-09-29T01:44:19;100163.19;;;10.40;100.00
42591;BME280;28218;53.342;-6.216;2022-09-29T01:46:51;100155.75;;;10.43;100.00
42591;BME280;28218;53.342;-6.216;2022-09-29T01:49:26;100150.94;;;10.47;100.00
42591;BME280;28218;53.342;-6.216;2022-09-29T01:51:59;100145.66;;;10.47;100.00
42591;BME280;28218;53.342;-6.216;2022-09-29T01:54:33;100146.75;;;10.53;100.00
42591;BME280;28218;53.342;-6.216;2022-09-29T01:57:07;100139.22;;;10.49;100.00
42591;BME280;28218;53.342;-6.216;2022-09-29T01:59:42;100140.66;;;10.52;100.00
42591;BME280;28218;53.342;-6.216;2022-09-29T02:02:16;100132.56;;;10.54;100.00
42591;BME280;28218;53.342;-6.216;2022-09-29T02:04:50;100133.41;;;10.54;100.00
42591;BME280;28218;53.342;-6.216;2022-09-29T02:07:23;100132.97;;;10.51;100.00
42591;BME280;28218;53.342;-6.216;2022-09-29T02:09:57;100133.13;;;10.49;100.00
42591;BME280;28218;53.342;-6.216;2022-09-29T02:12:31;100139.22;;;10.49;100.00
42591;BME280;28218;53.342;-6.216;2022-09-29T02:15:01;100142.69;;;10.50;100.00
42591;BME280;28218;53.342;-6.216;2022-09-29T02:17:35;100136.59;;;10.49;100.00
42591;BME280;28218;53.342;-6.216;2022-09-29T02:20:04;100133.59;;;10.53;100.00
42591;BME280;28218;53.342;-6.216;2022-09-29T02:22:34;100131.94;;;10.52;100.00
42591;BME280;28218;53.342;-6.216;2022-09-29T02:25:03;100135.88;;;10.56;100.00
42591;BME280;28218;53.342;-6.216;2022-09-29T02:27:32;100139.50;;;10.55;100.00
42591;BME280;28218;53.342;-6.216;2022-09-29T02:30:00;100137.84;;;10.54;100.00
42591;BME280;28218;53.342;-6.216;2022-09-29T02:32:28;100136.47;;;10.58;100.00
42591;BME280;28218;53.342;-6.216;2022-09-29T02:35:00;100139.56;;;10.61;100.00
42591;BME280;28218;53.342;-6.216;2022-09-29T02:37:42;100133.31;;;10.62;100.00
42591;BME280;28218;53.342;-6.216;2022-09-29T02:40:32;100140.03;;;10.65;100.00
42591;BME280;28218;53.342;-6.216;2022-09-29T02:43:27;100135.59;;;10.65;100.00
42591;BME280;28218;53.342;-6.216;2022-09-29T02:46:09;100138.69;;;10.69;100.00
42591;BME280;28218;53.342;-6.216;2022-09-29T02:48:57;100137.47;;;10.71;100.00
42591;BME280;28218;53.342;-6.216;2022-09-29T02:51:36;100139.94;;;10.73;100.00
42591;BME280;28218;53.342;-6.216;2022-09-29T02:54:18;100133.03;;;10.72;100.00
42591;BME280;28218;53.342;-6.216;2022-09-29T02:56:58;100131.03;;;10.74;100.00
42591;BME280;28218;53.342;-6.216;2022-09-29T02:59:36;100136.94;;;10.76;100.00
42591;BME280;28218;53.342;-6.216;2022-09-29T03:02:07;100139.09;;;10.72;100.00
42591;BME280;28218;53.342;-6.216;2022-09-29T03:04:35;100149.28;;;10.75;100.00
42591;BME280;28218;53.342;-6.216;2022-09-29T03:07:04;100151.13;;;10.75;100.00
42591;BME280;28218;53.342;-6.216;2022-09-29T03:09:32;100138.94;;;10.74;100.00
42591;BME280;28218;53.342;-6.216;2022-09-29T03:12:01;100140.75;;;10.73;100.00
42591;BME280;28218;53.342;-6.216;2022-09-29T03:14:29;100141.75;;;10.72;100.00
42591;BME280;28218;53.342;-6.216;2022-09-29T03:16:57;100134.50;;;10.74;100.00
42591;BME280;28218;53.342;-6.216;2022-09-29T03:19:25;100152.94;;;10.74;100.00
42591;BME280;28218;53.342;-6.216;2022-09-29T03:21:53;100148.47;;;10.75;100.00
42591;BME280;28218;53.342;-6.216;2022-09-29T03:24:23;100154.38;;;10.77;100.00
42591;BME280;28218;53.342;-6.216;2022-09-29T03:26:52;100149.75;;;10.79;100.00
42591;BME280;28218;53.342;-6.216;2022-09-29T03:29:20;100156.03;;;10.78;100.00
42591;BME280;28218;53.342;-6.216;2022-09-29T03:31:48;100158.81;;;10.77;100.00
42591;BME280;28218;53.342;-6.216;2022-09-29T03:34:16;100155.56;;;10.74;100.00
42591;BME280;28218;53.342;-6.216;2022-09-29T03:36:45;100163.00;;;10.71;100.00
42591;BME280;28218;53.342;-6.216;2022-09-29T03:39:13;100161.75;;;10.67;100.00
42591;BME280;28218;53.342;-6.216;2022-09-29T03:41:42;100161.94;;;10.65;100.00
42591;BME280;28218;53.342;-6.216;2022-09-29T03:44:11;100166.19;;;10.66;100.00
42591;BME280;28218;53.342;-6.216;2022-09-29T03:46:39;100173.91;;;10.68;100.00
42591;BME280;28218;53.342;-6.216;2022-09-29T03:49:08;100178.00;;;10.70;100.00
42591;BME280;28218;53.342;-6.216;2022-09-29T03:51:37;100174.22;;;10.73;100.00
42591;BME280;28218;53.342;-6.216;2022-09-29T03:54:05;100174.22;;;10.73;100.00
42591;BME280;28218;53.342;-6.216;2022-09-29T03:56:34;100169.38;;;10.77;100.00
42591;BME280;28218;53.342;-6.216;2022-09-29T03:59:05;100174.47;;;10.78;100.00
42591;BME280;28218;53.342;-6.216;2022-09-29T04:01:35;100181.38;;;10.79;100.00
42591;BME280;28218;53.342;-6.216;2022-09-29T04:04:04;100182.81;;;10.82;100.00
42591;BME280;28218;53.342;-6.216;2022-09-29T04:06:33;100174.09;;;10.81;100.00
42591;BME280;28218;53.342;-6.216;2022-09-29T04:09:02;100179.00;;;10.84;100.00
42591;BME280;28218;53.342;-6.216;2022-09-29T04:11:31;100180.63;;;10.85;100.00
42591;BME280;28218;53.342;-6.216;2022-09-29T04:13:59;100174.19;;;10.88;100.00
42591;BME280;28218;53.342;-6.216;2022-09-29T04:16:30;100168.91;;;10.88;100.00
42591;BME280;28218;53.342;-6.216;2022-09-29T04:18:58;100164.28;;;10.90;100.00
42591;BME280;28218;53.342;-6.216;2022-09-29T04:21:27;100173.19;;;10.89;100.00
42591;BME280;28218;53.342;-6.216;2022-09-29T04:23:55;100181.09;;;10.89;100.00
42591;BME280;28218;53.342;-6.216;2022-09-29T04:26:23;100188.81;;;10.90;100.00
42591;BME280;28218;53.342;-6.216;2022-09-29T04:28:51;100194.91;;;10.91;100.00
42591;BME280;28218;53.342;-6.216;2022-09-29T04:31:19;100200.00;;;10.92;100.00
42591;BME280;28218;53.342;-6.216;2022-09-29T04:33:49;100204.25;;;10.93;100.00
42591;BME280;28218;53.342;-6.216;2022-09-29T04:36:17;100205.28;;;10.92;100.00
42591;BME280;28218;53.342;-6.216;2022-09-29T04:38:46;100207.91;;;10.92;100.00
42591;BME280;28218;53.342;-6.216;2022-09-29T04:41:15;100208.53;;;10.94;100.00
42591;BME280;28218;53.342;-6.216;2022-09-29T04:43:44;100206.25;;;10.91;100.00
42591;BME280;28218;53.342;-6.216;2022-09-29T04:46:12;100217.25;;;10.95;100.00
42591;BME280;28218;53.342;-6.216;2022-09-29T04:48:41;100211.16;;;10.94;100.00
42591;BME280;28218;53.342;-6.216;2022-09-29T04:51:11;100210.16;;;10.95;100.00
42591;BME280;28218;53.342;-6.216;2022-09-29T04:53:39;100211.38;;;10.93;100.00
42591;BME280;28218;53.342;-6.216;2022-09-29T04:56:07;100217.25;;;10.95;100.00
42591;BME280;28218;53.342;-6.216;2022-09-29T04:58:35;100225.97;;;10.95;100.00
42591;BME280;28218;53.342;-6.216;2022-09-29T05:01:08;100229.06;;;10.99;100.00
42591;BME280;28218;53.342;-6.216;2022-09-29T05:03:39;100232.53;;;10.99;100.00
42591;BME280;28218;53.342;-6.216;2022-09-29T05:06:08;100240.44;;;10.99;100.00
42591;BME280;28218;53.342;-6.216;2022-09-29T05:08:38;100240.28;;;11.01;100.00
42591;BME280;28218;53.342;-6.216;2022-09-29T05:11:07;100246.53;;;11.00;100.00
42591;BME280;28218;53.342;-6.216;2022-09-29T05:13:36;100251.09;;;11.06;100.00
42591;BME280;28218;53.342;-6.216;2022-09-29T05:16:05;100252.72;;;11.07;100.00
42591;BME280;28218;53.342;-6.216;2022-09-29T05:18:33;100257.16;;;11.07;100.00
42591;BME280;28218;53.342;-6.216;2022-09-29T05:21:02;100266.72;;;11.08;100.00
42591;BME280;28218;53.342;-6.216;2022-09-29T05:23:52;100265.91;;;11.07;100.00
42591;BME280;28218;53.342;-6.216;2022-09-29T05:26:20;100274.44;;;11.09;100.00
42591;BME280;28218;53.342;-6.216;2022-09-29T05:28:49;100276.06;;;11.10;100.00
42591;BME280;28218;53.342;-6.216;2022-09-29T05:31:17;100280.34;;;11.11;100.00
42591;BME280;28218;53.342;-6.216;2022-09-29T05:33:45;100274.88;;;11.13;100.00
42591;BME280;28218;53.342;-6.216;2022-09-29T05:36:13;100277.53;;;11.13;100.00
42591;BME280;28218;53.342;-6.216;2022-09-29T05:38:41;100276.72;;;11.12;100.00
42591;BME280;28218;53.342;-6.216;2022-09-29T05:41:12;100275.25;;;11.10;100.00
42591;BME280;28218;53.342;-6.216;2022-09-29T05:43:41;100274.63;;;11.08;100.00
42591;BME280;28218;53.342;-6.216;2022-09-29T05:46:10;100283.69;;;11.05;100.00
42591;BME280;28218;53.342;-6.216;2022-09-29T05:48:38;100280.09;;;11.06;100.00
42591;BME280;28218;53.342;-6.216;2022-09-29T05:51:08;100282.88;;;11.05;100.00
42591;BME280;28218;53.342;-6.216;2022-09-29T05:53:37;100290.16;;;11.03;100.00
42591;BME280;28218;53.342;-6.216;2022-09-29T05:56:06;100292.16;;;11.00;100.00
42591;BME280;28218;53.342;-6.216;2022-09-29T05:58:37;100298.28;;;11.01;100.00
42591;BME280;28218;53.342;-6.216;2022-09-29T06:01:06;100290.53;;;10.99;100.00
42591;BME280;28218;53.342;-6.216;2022-09-29T06:03:35;100299.63;;;10.97;100.00
42591;BME280;28218;53.342;-6.216;2022-09-29T06:06:05;100303.69;;;10.99;100.00
42591;BME280;28218;53.342;-6.216;2022-09-29T06:08:33;100294.34;;;10.97;100.00
42591;BME280;28218;53.342;-6.216;2022-09-29T06:11:03;100297.81;;;10.97;100.00
42591;BME280;28218;53.342;-6.216;2022-09-29T06:13:32;100297.97;;;10.96;100.00
42591;BME280;28218;53.342;-6.216;2022-09-29T06:16:02;100304.09;;;10.96;100.00
42591;BME280;28218;53.342;-6.216;2022-09-29T06:18:30;100302.25;;;10.97;100.00
42591;BME280;28218;53.342;-6.216;2022-09-29T06:21:02;100300.78;;;10.94;100.00
42591;BME280;28218;53.342;-6.216;2022-09-29T06:23:31;100305.72;;;10.97;100.00
42591;BME280;28218;53.342;-6.216;2022-09-29T06:26:01;100310.34;;;10.95;100.00
42591;BME280;28218;53.342;-6.216;2022-09-29T06:28:31;100319.44;;;10.93;100.00
42591;BME280;28218;53.342;-6.216;2022-09-29T06:30:59;100323.50;;;10.95;100.00
42591;BME280;28218;53.342;-6.216;2022-09-29T06:33:31;100320.72;;;10.97;100.00
42591;BME280;28218;53.342;-6.216;2022-09-29T06:36:02;100324.16;;;10.97;100.00
42591;BME280;28218;53.342;-6.216;2022-09-29T06:38:49;100326.81;;;10.97;100.00
42591;BME280;28218;53.342;-6.216;2022-09-29T06:41:17;100329.25;;;10.99;100.00
42591;BME280;28218;53.342;-6.216;2022-09-29T06:43:46;100334.19;;;11.02;100.00
42591;BME280;28218;53.342;-6.216;2022-09-29T06:46:14;100336.00;;;11.02;100.00
42591;BME280;28218;53.342;-6.216;2022-09-29T06:48:44;100345.06;;;10.99;100.00
42591;BME280;28218;53.342;-6.216;2022-09-29T06:51:12;100347.50;;;11.00;100.00
42591;BME280;28218;53.342;-6.216;2022-09-29T06:53:41;100344.25;;;10.98;100.00
42591;BME280;28218;53.342;-6.216;2022-09-29T06:56:09;100349.19;;;11.02;100.00
42591;BME280;28218;53.342;-6.216;2022-09-29T06:58:37;100354.59;;;11.00;100.00
42591;BME280;28218;53.342;-6.216;2022-09-29T07:01:06;100352.44;;;11.04;100.00
42591;BME280;28218;53.342;-6.216;2022-09-29T07:03:34;100351.81;;;11.02;100.00
42591;BME280;28218;53.342;-6.216;2022-09-29T07:06:05;100356.09;;;11.03;100.00
42591;BME280;28218;53.342;-6.216;2022-09-29T07:08:45;100352.44;;;11.04;100.00
42591;BME280;28218;53.342;-6.216;2022-09-29T07:11:13;100362.78;;;11.05;100.00
42591;BME280;28218;53.342;-6.216;2022-09-29T07:13:42;100363.44;;;11.07;100.00
42591;BME280;28218;53.342;-6.216;2022-09-29T07:16:11;100354.34;;;11.10;100.00
42591;BME280;28218;53.342;-6.216;2022-09-29T07:18:41;100364.53;;;11.13;100.00
42591;BME280;28218;53.342;-6.216;2022-09-29T07:21:13;100372.25;;;11.14;100.00
42591;BME280;28218;53.342;-6.216;2022-09-29T07:23:43;100379.81;;;11.17;100.00
42591;BME280;28218;53.342;-6.216;2022-09-29T07:26:12;100377.00;;;11.19;100.00
42591;BME280;28218;53.342;-6.216;2022-09-29T07:28:44;100380.44;;;11.19;100.00
42591;BME280;28218;53.342;-6.216;2022-09-29T07:31:15;100393.47;;;11.21;100.00
42591;BME280;28218;53.342;-6.216;2022-09-29T07:33:45;100382.75;;;11.22;100.00
42591;BME280;28218;53.342;-6.216;2022-09-29T07:36:17;100382.28;;;11.19;100.00
42591;BME280;28218;53.342;-6.216;2022-09-29T07:38:46;100389.03;;;11.21;100.00
42591;BME280;28218;53.342;-6.216;2022-09-29T07:41:16;100382.75;;;11.22;100.00
42591;BME280;28218;53.342;-6.216;2022-09-29T07:43:45;100394.09;;;11.23;100.00
42591;BME280;28218;53.342;-6.216;2022-09-29T07:46:13;100392.13;;;11.25;100.00
42591;BME280;28218;53.342;-6.216;2022-09-29T07:48:42;100396.19;;;11.27;100.00
42591;BME280;28218;53.342;-6.216;2022-09-29T07:51:11;100399.13;;;11.33;100.00
42591;BME280;28218;53.342;-6.216;2022-09-29T07:53:41;100404.22;;;11.34;100.00
42591;BME280;28218;53.342;-6.216;2022-09-29T07:56:12;100407.13;;;11.39;100.00
42591;BME280;28218;53.342;-6.216;2022-09-29T07:58:41;100404.13;;;11.42;100.00
42591;BME280;28218;53.342;-6.216;2022-09-29T08:01:11;100400.13;;;11.46;100.00
42591;BME280;28218;53.342;-6.216;2022-09-29T08:03:43;100410.94;;;11.51;100.00
42591;BME280;28218;53.342;-6.216;2022-09-29T08:06:13;100413.25;;;11.55;100.00
42591;BME280;28218;53.342;-6.216;2022-09-29T08:08:42;100411.06;;;11.58;100.00
42591;BME280;28218;53.342;-6.216;2022-09-29T08:11:25;100419.25;;;11.63;100.00
42591;BME280;28218;53.342;-6.216;2022-09-29T08:13:58;100414.03;;;11.70;100.00
42591;BME280;28218;53.342;-6.216;2022-09-29T08:16:26;100429.13;;;11.76;100.00
42591;BME280;28218;53.342;-6.216;2022-09-29T08:18:54;100426.50;;;11.76;100.00
42591;BME280;28218;53.342;-6.216;2022-09-29T08:21:23;100428.78;;;11.79;100.00
42591;BME280;28218;53.342;-6.216;2022-09-29T08:23:53;100431.91;;;11.83;100.00
42591;BME280;28218;53.342;-6.216;2022-09-29T08:26:21;100439.66;;;11.84;100.00
42591;BME280;28218;53.342;-6.216;2022-09-29T08:29:06;100430.38;;;11.88;100.00
42591;BME280;28218;53.342;-6.216;2022-09-29T08:31:37;100436.28;;;11.90;100.00
42591;BME280;28218;53.342;-6.216;2022-09-29T08:34:05;100434.91;;;11.94;100.00
42591;BME280;28218;53.342;-6.216;2022-09-29T08:36:34;100445.09;;;11.97;100.00
42591;BME280;28218;53.342;-6.216;2022-09-29T08:39:04;100448.00;;;12.02;100.00
42591;BME280;28218;53.342;-6.216;2022-09-29T08:41:42;100454.56;;;12.07;100.00
42591;BME280;28218;53.342;-6.216;2022-09-29T08:44:16;100445.06;;;12.12;100.00
42591;BME280;28218;53.342;-6.216;2022-09-29T08:47:10;100447.81;;;12.19;100.00
42591;BME280;28218;53.342;-6.216;2022-09-29T08:49:42;100451.69;;;12.23;100.00
42591;BME280;28218;53.342;-6.216;2022-09-29T08:52:16;100444.06;;;12.28;100.00
42591;BME280;28218;53.342;-6.216;2022-09-29T08:54:49;100443.47;;;12.33;100.00
42591;BME280;28218;53.342;-6.216;2022-09-29T08:57:20;100443.31;;;12.34;100.00
42591;BME280;28218;53.342;-6.216;2022-09-29T08:59:53;100433.00;;;12.39;100.00
42591;BME280;28218;53.342;-6.216;2022-09-29T09:02:32;100441.38;;;12.43;100.00
42591;BME280;28218;53.342;-6.216;2022-09-29T09:05:16;100428.59;;;12.46;100.00
42591;BME280;28218;53.342;-6.216;2022-09-29T09:07:52;100441.63;;;12.48;100.00
42591;BME280;28218;53.342;-6.216;2022-09-29T09:10:38;100442.34;;;12.57;100.00
42591;BME280;28218;53.342;-6.216;2022-09-29T09:13:29;100439.75;;;12.63;100.00
42591;BME280;28218;53.342;-6.216;2022-09-29T09:16:10;100444.72;;;12.73;100.00
42591;BME280;28218;53.342;-6.216;2022-09-29T09:19:00;100444.22;;;12.84;100.00
42591;BME280;28218;53.342;-6.216;2022-09-29T09:21:38;100443.72;;;12.95;100.00
42591;BME280;28218;53.342;-6.216;2022-09-29T09:24:15;100452.72;;;13.01;100.00
42591;BME280;28218;53.342;-6.216;2022-09-29T09:26:51;100466.63;;;13.10;100.00
42591;BME280;28218;53.342;-6.216;2022-09-29T09:29:26;100464.22;;;13.15;100.00
42591;BME280;28218;53.342;-6.216;2022-09-29T09:32:04;100455.50;;;13.21;100.00
42591;BME280;28218;53.342;-6.216;2022-09-29T09:34:38;100461.06;;;13.26;100.00
42591;BME280;28218;53.342;-6.216;2022-09-29T09:37:14;100469.66;;;13.28;100.00
42591;BME280;28218;53.342;-6.216;2022-09-29T09:39:47;100477.19;;;13.31;100.00
42591;BME280;28218;53.342;-6.216;2022-09-29T09:42:24;100475.19;;;13.33;100.00
42591;BME280;28218;53.342;-6.216;2022-09-29T09:44:57;100480.13;;;13.36;100.00
42591;BME280;28218;53.342;-6.216;2022-09-29T09:47:28;100486.47;;;13.42;100.00
42591;BME280;28218;53.342;-6.216;2022-09-29T09:50:00;100492.56;;;13.42;100.00
42591;BME280;28218;53.342;-6.216;2022-09-29T09:52:39;100491.31;;;13.38;100.00
42591;BME280;28218;53.342;-6.216;2022-09-29T09:55:14;100494.97;;;13.37;100.00
42591;BME280;28218;53.342;-6.216;2022-09-29T09:58:00;100497.78;;;13.36;100.00
42591;BME280;28218;53.342;-6.216;2022-09-29T10:00:34;100505.13;;;13.34;100.00
42591;BME280;28218;53.342;-6.216;2022-09-29T10:03:06;100509.59;;;13.33;100.00
42591;BME280;28218;53.342;-6.216;2022-09-29T10:05:36;100506.31;;;13.31;100.00
42591;BME280;28218;53.342;-6.216;2022-09-29T10:08:09;100504.06;;;13.28;100.00
42591;BME280;28218;53.342;-6.216;2022-09-29T10:10:40;100517.91;;;13.30;100.00
42591;BME280;28218;53.342;-6.216;2022-09-29T10:13:26;100520.09;;;13.26;100.00
42591;BME280;28218;53.342;-6.216;2022-09-29T10:15:57;100515.22;;;13.23;100.00
42591;BME280;28218;53.342;-6.216;2022-09-29T10:18:31;100524.16;;;13.22;100.00
42591;BME280;28218;53.342;-6.216;2022-09-29T10:21:03;100537.53;;;13.21;100.00
42591;BME280;28218;53.342;-6.216;2022-09-29T10:23:34;100534.28;;;13.19;100.00
42591;BME280;28218;53.342;-6.216;2022-09-29T10:26:08;100537.94;;;13.18;100.00
42591;BME280;28218;53.342;-6.216;2022-09-29T10:28:45;100538.91;;;13.17;100.00
42591;BME280;28218;53.342;-6.216;2022-09-29T10:31:21;100534.63;;;13.16;100.00
42591;BME280;28218;53.342;-6.216;2022-09-29T10:33:53;100523.69;;;13.19;100.00
42591;BME280;28218;53.342;-6.216;2022-09-29T10:36:24;100527.16;;;13.19;100.00
42591;BME280;28218;53.342;-6.216;2022-09-29T10:38:53;100533.53;;;13.25;100.00
42591;BME280;28218;53.342;-6.216;2022-09-29T10:41:28;100540.47;;;13.26;100.00
42591;BME280;28218;53.342;-6.216;2022-09-29T10:44:17;100534.59;;;13.30;100.00
42591;BME280;28218;53.342;-6.216;2022-09-29T10:46:51;100540.13;;;13.36;100.00
42591;BME280;28218;53.342;-6.216;2022-09-29T10:49:20;100533.28;;;13.41;100.00
42591;BME280;28218;53.342;-6.216;2022-09-29T10:51:56;100532.50;;;13.47;100.00
42591;BME280;28218;53.342;-6.216;2022-09-29T10:54:26;100537.22;;;13.52;100.00
42591;BME280;28218;53.342;-6.216;2022-09-29T10:56:56;100535.03;;;13.55;100.00
42591;BME280;28218;53.342;-6.216;2022-09-29T10:59:26;100527.56;;;13.66;100.00
42591;BME280;28218;53.342;-6.216;2022-09-29T11:01:57;100517.66;;;13.74;100.00
42591;BME280;28218;53.342;-6.216;2022-09-29T11:04:29;100521.56;;;13.85;100.00
42591;BME280;28218;53.342;-6.216;2022-09-29T11:07:06;100528.16;;;13.96;100.00
42591;BME280;28218;53.342;-6.216;2022-09-29T11:09:38;100524.72;;;14.02;100.00
42591;BME280;28218;53.342;-6.216;2022-09-29T11:12:27;100529.63;;;14.05;100.00
42591;BME280;28218;53.342;-6.216;2022-09-29T11:15:00;100534.56;;;14.15;100.00
42591;BME280;28218;53.342;-6.216;2022-09-29T11:17:30;100540.75;;;14.22;100.00
42591;BME280;28218;53.342;-6.216;2022-09-29T11:20:05;100536.72;;;14.39;100.00
42591;BME280;28218;53.342;-6.216;2022-09-29T11:22:55;100539.34;;;14.74;100.00
42591;BME280;28218;53.342;-6.216;2022-09-29T11:28:49;100561.25;;;15.09;100.00
42591;BME280;28218;53.342;-6.216;2022-09-29T11:31:44;100570.25;;;15.15;100.00
42591;BME280;28218;53.342;-6.216;2022-09-29T11:34:42;100582.69;;;15.14;100.00
42591;BME280;28218;53.342;-6.216;2022-09-29T11:37:22;100578.00;;;15.09;100.00
42591;BME280;28218;53.342;-6.216;2022-09-29T11:40:01;100588.44;;;15.11;100.00
42591;BME280;28218;53.342;-6.216;2022-09-29T11:45:29;100599.44;;;15.01;100.00
42591;BME280;28218;53.342;-6.216;2022-09-29T11:51:29;100595.38;;;15.19;100.00
42591;BME280;28218;53.342;-6.216;2022-09-29T11:54:19;100601.13;;;15.42;100.00
42591;BME280;28218;53.342;-6.216;2022-09-29T11:56:55;100600.97;;;15.64;100.00
42591;BME280;28218;53.342;-6.216;2022-09-29T11:59:36;100599.75;;;15.86;100.00
42591;BME280;28218;53.342;-6.216;2022-09-29T12:02:16;100597.09;;;15.86;100.00
42591;BME280;28218;53.342;-6.216;2022-09-29T12:04:55;100616.69;;;15.78;100.00
42591;BME280;28218;53.342;-6.216;2022-09-29T12:07:37;100628.75;;;15.68;100.00
42591;BME280;28218;53.342;-6.216;2022-09-29T12:10:24;100651.19;;;15.58;100.00
42591;BME280;28218;53.342;-6.216;2022-09-29T12:13:03;100659.41;;;15.70;100.00
42591;BME280;28218;53.342;-6.216;2022-09-29T12:15:41;100663.50;;;15.73;100.00
42591;BME280;28218;53.342;-6.216;2022-09-29T12:18:15;100666.34;;;15.84;100.00
42591;BME280;28218;53.342;-6.216;2022-09-29T12:20:47;100663.31;;;15.81;100.00
42591;BME280;28218;53.342;-6.216;2022-09-29T12:23:21;100670.25;;;16.02;100.00
42591;BME280;28218;53.342;-6.216;2022-09-29T12:25:54;100670.22;;;16.08;100.00
42591;BME280;28218;53.342;-6.216;2022-09-29T12:28:28;100671.25;;;16.21;100.00
42591;BME280;28218;53.342;-6.216;2022-09-29T12:31:00;100679.66;;;16.24;100.00
42591;BME280;28218;53.342;-6.216;2022-09-29T12:33:35;100682.09;;;16.13;100.00
42591;BME280;28218;53.342;-6.216;2022-09-29T12:36:15;100680.25;;;16.06;100.00
42591;BME280;28218;53.342;-6.216;2022-09-29T12:39:15;100694.75;;;16.04;100.00
42591;BME280;28218;53.342;-6.216;2022-09-29T12:41:48;100704.38;;;15.98;100.00
42591;BME280;28218;53.342;-6.216;2022-09-29T12:44:25;100696.41;;;15.98;100.00
42591;BME280;28218;53.342;-6.216;2022-09-29T12:47:01;100708.25;;;16.09;100.00
42591;BME280;28218;53.342;-6.216;2022-09-29T12:49:37;100714.41;;;16.36;100.00
42591;BME280;28218;53.342;-6.216;2022-09-29T12:52:14;100709.25;;;16.54;100.00
42591;BME280;28218;53.342;-6.216;2022-09-29T12:54:49;100715.19;;;16.56;100.00
42591;BME280;28218;53.342;-6.216;2022-09-29T12:57:23;100714.16;;;16.57;100.00
42591;BME280;28218;53.342;-6.216;2022-09-29T12:59:56;100723.78;;;16.45;100.00
42591;BME280;28218;53.342;-6.216;2022-09-29T13:02:49;100729.13;;;16.32;100.00
42591;BME280;28218;53.342;-6.216;2022-09-29T13:05:37;100731.16;;;16.43;100.00
42591;BME280;28218;53.342;-6.216;2022-09-29T13:11:40;100743.22;;;16.52;100.00
42591;BME280;28218;53.342;-6.216;2022-09-29T13:14:24;100748.34;;;16.34;100.00